Historyczne dane pomiarowe

Dodano dane terminowe – wersja testowa.

Dane z okresu 1951-2019

Wersja bazy: 1.34 [2019-03-16, lista zmian], aktualizacja planowana na 2019-04-15

Dane meteo z obszaru Polski uzyskane na podstawie danych udostępnionych przez Instytut Meteorologii i Gospodarki Wodnej – Państwowy Instytut Badawczy.

 

Wybierz Datę:    

       

TemperaturaWilgotnośćZachmurzenieWiatrCiśnienieWidzialnośćZjawiska
 Data    tng td wb rh cc ccl cl cm ch dir g1 g2 mslp ppp      
1994-07-31 00:00:00 21.2--- 11.0 15.252wxwx2wx--1013.2 998.7 0.0---wx
1994-07-31 01:00:00 20.8--- 10.7 14.952wxwx1wx--1013.4 998.9----wx
1994-07-31 02:00:00 18.6--- 10.4 13.959wxwx1wx--1013.5 998.8----wx
1994-07-31 03:00:00 17.7--- 11.2 13.965wxwxwx1wx--1013.6 998.9----wx
1994-07-31 04:00:00 17.8--- 11.1 13.965wxwxwx2wx--1013.7 999.0----wx
1994-07-31 05:00:00 20.0--- 13.3 15.965wxwxwx0wx--1013.9 999.3----wx
1994-07-31 06:00:00 23.4--- 12.6 16.851wxwxwx2wx--1013.7 999.3 0.0---wx
1994-07-31 07:00:00 26.6--- 13.1 18.243wxwxwx4wx--1013.6 999.3----wx
1994-07-31 08:00:00 30.4--- 12.7 19.334wxwxwx4wx--1013.3 999.2----wx
1994-07-31 09:00:00 32.8--- 12.9 20.230wxwxwx5wx--1013.0 999.0----wx
1994-07-31 10:00:00 34.4--- 12.0 20.326wxwxwx5wx--1012.7 998.8----wx
1994-07-31 11:00:00 35.4--- 9.7 19.721wxwx5wx--1012.2 998.4----wx
1994-07-31 12:00:00 36.7--- 9.4 20.019wxwxwx5wx11-1011.6 997.8 0.0---wx
1994-07-31 13:00:00 37.1--- 9.8 20.319wxwxwx5wx--1011.3 997.5----wx
1994-07-31 14:00:00 36.7--- 9.1 19.919wxwxwx5wx--1010.8 997.0----wx
1994-07-31 15:00:00 36.4--- 8.8 19.719wxwxwx4wx--1010.6 996.8----wx
1994-07-31 16:00:00 36.1--- 9.1 19.719wxwxwx3wx--1010.2 996.4----wx
1994-07-31 17:00:00 34.8--- 10.2 19.722wxwxwxwx3wx--1010.0 996.2----wx
1994-07-31 18:00:00 31.9--- 11.1 19.128wxwxwxwxwx2wx--1010.2 996.2 0.0---wx
1994-07-31 19:00:00 30.5--- 10.4 18.329wxwxwx3wx--1010.5 996.5----wx
1994-07-31 20:00:00 28.1--- 10.0 17.332wxwxwx3wx--1010.9 996.7----wx
1994-07-31 21:00:00 26.1--- 10.3 16.737wxwxwx1wx--1011.2 996.9----wx
1994-07-31 22:00:00 24.5--- 10.9 16.442wxwx1wx--1011.4 997.1----wx
1994-07-31 23:00:00 23.3--- 11.0 16.046wxwx0wx--1011.7 997.3----wx

 

Źródłem pochodzenia danych jest Instytut Meteorologii i Gospodarki Wodnej – Państwowy Instytut Badawczy. Dane Instytutu Meteorologii i Gospodarki Wodnej – Państwowego Instytutu Badawczego zostały przetworzone.

Dane źródłowe można odnaleźć na stronie https://dane.imgw.pl